LTFM Airport Information

Runway Information
Airport Frequencies
Airport Navaids
Airport Weather Information & NOTAM
ADDS - METARS form results

(0813 UTC 30 May 2020)
Data provider http://aviationweather.gov/metar/data/
 
METAR text: LTFM 300750Z 23014KT 9999 SCT025 19/12 Q1016 NOSIG RMK RWY17L 24013KT RWY34L 21012KT RWY16R 23011KT 190V260
Conditions at: LTFM (ISTANBUL HANALI , TR) observed 0750 UTC 30 May 2020
Temperature: 19.0°C (66°F)
Dewpoint: 12.0°C (54°F) [RH = 64%]
Pressure (altimeter): 30.00 inches Hg (1016.0 mb)
Winds: from the SW (230 degrees) at 16 MPH (14 knots; 7.2 m/s)
Visibility: 6 or more miles (10+ km)
Ceiling: at least 12,000 feet AGL
Clouds: scattered clouds at 2500 feet AGL
Weather: no significant weather observed at this time

METAR text: LTFM 300720Z 24012KT 9999 SCT025 18/13 Q1016 NOSIG RMK RWY17L 24012KT RWY34L 23011KT RWY16R 24010KT 210V270
Conditions at: LTFM (ISTANBUL HANALI , TR) observed 0720 UTC 30 May 2020
Temperature: 18.0°C (64°F)
Dewpoint: 13.0°C (55°F) [RH = 73%]
Pressure (altimeter): 30.00 inches Hg (1016.0 mb)
Winds: from the WSW (240 degrees) at 14 MPH (12 knots; 6.2 m/s)
Visibility: 6 or more miles (10+ km)
Ceiling: at least 12,000 feet AGL
Clouds: scattered clouds at 2500 feet AGL
Weather: no significant weather observed at this time

Forecast for: LTFM (ISTANBUL HANALI , TR)
Text: TAF LTFM 300440Z 3006/3112 21012KT 9999 SCT032
Forecast period: 0600 to 1500 UTC 30 May 2020
Forecast type: FROM: standard forecast or significant change
Winds: from the SSW (210 degrees) at 14 MPH (12 knots; 6.2 m/s)
Visibility: 6 or more miles 10+ km)
Ceiling: at least 12,000 feet AGL
Clouds: scattered clouds at 3200 feet AGL
Weather: no significant weather forecast for this period
Text: TEMPO 3009/3013 22015G25KT 4000 -TSRA FEW017CB BKN025
Forecast period: 0900 to 1300 UTC 30 May 2020
Forecast type: TEMPORARY: The following changes expected for less than half the time period
Winds: from the SW (220 degrees) at 17 MPH (15 knots; 7.7 m/s)
gusting to 29 MPH (25 knots; 12.9 m/s)
Visibility: 2.49 miles (4.01 km)
Ceiling: 2500 feet AGL
Clouds: few clouds at 1700 feet AGL
broken clouds at 2500 feet AGL
Weather: -TSRA  (light rain associated with thunderstorm(s))
Text: BECMG 3015/3018 CAVOK
Forecast period: 1500 UTC 30 May 2020 to 1200 UTC 31 May 2020
Forecast type: BECOMING: Conditions expected to become as follows by 1800 UTC 30 May 2020
Winds: from the SSW (210 degrees) at 14 MPH (12 knots; 6.2 m/s)
Visibility: 6 or more miles 10+ km)
Ceiling: unknown
Clouds: missing
Weather: NSW  (no significant weather)